createdAt,value
2018-06-29T00:02:08.632Z,7.30
2018-06-29T00:04:38.621Z,7.27
2018-06-29T00:07:08.464Z,5.93
2018-06-29T00:09:38.225Z,5.53
2018-06-29T00:12:08.008Z,4.67
2018-06-29T00:14:37.834Z,4.47
2018-06-29T00:17:07.602Z,4.57
2018-06-29T00:19:37.420Z,4.90
2018-06-29T00:22:07.237Z,4.27
2018-06-29T00:24:37.055Z,4.83
2018-06-29T00:27:06.853Z,4.83
2018-06-29T00:29:36.628Z,6.50
2018-06-29T00:32:06.759Z,6.43
2018-06-29T00:34:36.572Z,6.00
2018-06-29T00:37:06.399Z,6.20
2018-06-29T00:39:36.449Z,6.27
2018-06-29T00:42:06.172Z,6.60
2018-06-29T00:44:36.006Z,6.83
2018-06-29T00:47:05.732Z,7.17
2018-06-29T00:49:35.520Z,6.77
2018-06-29T00:52:05.282Z,7.50
2018-06-29T00:54:35.093Z,7.50
2018-06-29T00:57:04.779Z,8.03
2018-06-29T00:59:34.559Z,8.67
2018-06-29T01:02:04.347Z,8.97
2018-06-29T01:04:34.095Z,9.17
2018-06-29T01:07:04.189Z,8.57
2018-06-29T01:09:34.369Z,8.73
2018-06-29T01:12:04.562Z,9.50
2018-06-29T01:14:34.289Z,11.27
2018-06-29T01:17:04.399Z,11.27
2018-06-29T01:19:34.145Z,12.43
2018-06-29T01:22:03.929Z,13.17
2018-06-29T01:24:33.623Z,12.17
2018-06-29T01:27:03.440Z,14.20
2018-06-29T01:29:33.438Z,14.07
2018-06-29T01:32:03.401Z,14.27
2018-06-29T01:34:33.170Z,14.17
2018-06-29T01:37:02.947Z,14.57
2018-06-29T01:39:32.720Z,15.73
2018-06-29T01:42:02.592Z,16.37
2018-06-29T01:44:32.301Z,16.33
2018-06-29T01:47:02.196Z,15.90
2018-06-29T01:49:31.899Z,16.80
2018-06-29T01:52:01.700Z,17.70
2018-06-29T01:54:31.445Z,17.43
2018-06-29T01:57:01.256Z,18.47
2018-06-29T01:59:31.188Z,19.13
2018-06-29T02:02:00.979Z,18.37
2018-06-29T02:04:30.677Z,19.47
2018-06-29T02:07:00.408Z,20.00
2018-06-29T02:09:30.241Z,21.70
2018-06-29T02:12:00.148Z,22.17
2018-06-29T02:14:29.947Z,24.57
2018-06-29T02:16:59.680Z,23.47
2018-06-29T02:19:29.482Z,22.77
2018-06-29T02:21:59.209Z,24.43
2018-06-29T02:24:28.994Z,24.70
2018-06-29T02:26:58.916Z,24.87
2018-06-29T02:29:28.869Z,24.27
2018-06-29T02:31:58.713Z,21.67
2018-06-29T02:34:28.660Z,21.50
2018-06-29T02:36:58.385Z,21.87
2018-06-29T02:39:28.291Z,22.87
2018-06-29T02:41:58.274Z,22.73
2018-06-29T02:44:28.040Z,20.27
2018-06-29T02:46:57.844Z,19.57
2018-06-29T02:49:27.578Z,19.57
2018-06-29T02:51:57.317Z,23.80
2018-06-29T02:54:27.093Z,24.10
2018-06-29T02:56:56.893Z,25.47
2018-06-29T02:59:26.608Z,26.27
2018-06-29T03:01:56.361Z,25.10
2018-06-29T03:04:26.131Z,24.13
2018-06-29T03:06:56.330Z,25.27
2018-06-29T03:09:26.091Z,24.37
2018-06-29T03:11:55.849Z,24.57
2018-06-29T03:14:25.589Z,25.70
2018-06-29T03:16:55.325Z,24.57
2018-06-29T03:19:25.177Z,25.17
2018-06-29T03:21:55.199Z,23.07
2018-06-29T03:24:24.981Z,23.07
2018-06-29T03:26:55.028Z,20.90
2018-06-29T03:29:24.798Z,16.70
2018-06-29T03:31:54.620Z,17.03
2018-06-29T03:34:24.412Z,15.80
2018-06-29T03:36:54.182Z,13.13
2018-06-29T03:39:24.175Z,12.23
2018-06-29T03:41:53.917Z,11.83
2018-06-29T03:44:23.655Z,10.23
2018-06-29T03:46:53.383Z,9.13
2018-06-29T03:49:23.248Z,7.93
2018-06-29T03:51:53.080Z,7.67
2018-06-29T03:54:22.880Z,7.63
2018-06-29T03:56:52.712Z,7.63
2018-06-29T03:59:22.552Z,8.13
2018-06-29T04:01:52.310Z,7.20
2018-06-29T04:04:22.143Z,7.83
2018-06-29T04:06:51.868Z,8.27
2018-06-29T04:09:21.733Z,8.87
2018-06-29T04:11:51.540Z,11.10
2018-06-29T04:14:21.433Z,12.97
2018-06-29T04:16:51.452Z,17.13
2018-06-29T04:19:21.169Z,17.23
2018-06-29T04:21:50.963Z,21.90
2018-06-29T04:24:20.817Z,22.53
2018-06-29T04:26:50.650Z,25.27
2018-06-29T04:29:20.710Z,32.33
2018-06-29T04:31:50.447Z,30.90
2018-06-29T04:34:20.211Z,29.20
2018-06-29T04:36:50.137Z,27.57
2018-06-29T04:39:19.940Z,26.90
2018-06-29T04:41:49.740Z,29.43
2018-06-29T04:44:19.436Z,31.73
2018-06-29T04:46:49.211Z,31.70
2018-06-29T04:49:19.036Z,35.13
2018-06-29T04:51:48.754Z,33.07
2018-06-29T04:54:18.796Z,35.23
2018-06-29T04:56:48.523Z,36.60
2018-06-29T04:59:18.284Z,38.87
2018-06-29T05:01:48.089Z,37.77
2018-06-29T05:04:18.005Z,38.73
2018-06-29T05:06:47.720Z,42.80
2018-06-29T05:09:17.585Z,40.27
2018-06-29T05:11:47.424Z,40.97
2018-06-29T05:14:17.236Z,38.27
2018-06-29T05:16:46.962Z,38.77
2018-06-29T05:19:16.683Z,38.27
2018-06-29T05:21:46.413Z,39.03
2018-06-29T05:24:16.244Z,34.97
2018-06-29T05:26:45.921Z,36.33
2018-06-29T05:29:15.689Z,33.63
2018-06-29T05:31:45.471Z,30.13
2018-06-29T05:34:15.262Z,33.10
2018-06-29T05:36:45.372Z,35.27
2018-06-29T05:39:15.237Z,32.07
2018-06-29T05:41:45.429Z,30.27
2018-06-29T05:44:15.188Z,31.10
2018-06-29T05:46:44.973Z,29.57
2018-06-29T05:49:14.773Z,29.53
2018-06-29T05:51:44.530Z,27.10
2018-06-29T05:54:14.591Z,28.87
2018-06-29T05:56:44.407Z,29.40
2018-06-29T05:59:14.290Z,29.77
2018-06-29T06:01:44.177Z,28.83
2018-06-29T06:04:13.896Z,25.60
2018-06-29T06:06:43.644Z,25.13
2018-06-29T06:09:13.680Z,24.20
2018-06-29T06:11:43.427Z,22.90
2018-06-29T06:14:13.219Z,24.80
2018-06-29T06:16:43.147Z,24.77
2018-06-29T06:19:23.657Z,25.97
2018-06-29T06:21:54.691Z,25.47
2018-06-29T06:24:24.433Z,23.23
2018-06-29T06:26:54.649Z,23.47
2018-06-29T06:29:24.542Z,23.13
2018-06-29T06:31:54.288Z,24.43
2018-06-29T06:34:24.184Z,25.43
2018-06-29T06:36:54.424Z,25.70
2018-06-29T06:39:24.117Z,23.07
2018-06-29T06:41:53.915Z,25.53
2018-06-29T06:44:23.609Z,23.30
2018-06-29T06:46:53.340Z,23.63
2018-06-29T06:49:23.102Z,24.23
2018-06-29T06:51:52.931Z,22.07
2018-06-29T06:54:23.184Z,19.53
2018-06-29T06:56:53.062Z,19.90
2018-06-29T06:59:22.842Z,21.67
2018-06-29T07:01:52.966Z,19.80
2018-06-29T07:04:22.640Z,21.03
2018-06-29T07:06:52.428Z,19.60
2018-06-29T07:09:22.160Z,19.50
2018-06-29T07:11:51.898Z,20.87
2018-06-29T07:14:21.929Z,18.63
2018-06-29T07:16:51.621Z,19.17
2018-06-29T07:19:21.729Z,18.17
2018-06-29T07:21:51.448Z,20.17
2018-06-29T07:24:21.279Z,19.17
2018-06-29T07:26:50.996Z,16.87
2018-06-29T07:29:20.761Z,18.50
2018-06-29T07:31:50.452Z,18.33
2018-06-29T07:34:20.248Z,17.47
2018-06-29T07:36:50.007Z,16.87
2018-06-29T07:39:19.794Z,19.30
2018-06-29T07:41:49.520Z,18.27
2018-06-29T07:44:19.316Z,18.13
2018-06-29T07:46:49.048Z,18.00
2018-06-29T07:49:18.805Z,17.03
2018-06-29T07:51:48.512Z,17.20
2018-06-29T07:54:18.193Z,15.00
2018-06-29T07:56:47.988Z,15.23
2018-06-29T07:59:17.701Z,15.70
2018-06-29T08:01:47.408Z,15.17
2018-06-29T08:04:17.084Z,13.87
2018-06-29T08:06:46.901Z,13.80
2018-06-29T08:09:16.614Z,15.53
2018-06-29T08:11:46.345Z,14.00
2018-06-29T08:14:16.108Z,13.23
2018-06-29T08:16:45.852Z,11.67
2018-06-29T08:19:15.595Z,12.93
2018-06-29T08:21:45.259Z,13.70
2018-06-29T08:24:14.961Z,13.10
2018-06-29T08:26:44.683Z,14.27
2018-06-29T08:29:14.536Z,10.07
2018-06-29T08:31:44.273Z,10.77
2018-06-29T08:34:13.959Z,11.50
2018-06-29T08:36:43.633Z,11.83
2018-06-29T08:39:13.312Z,12.07
2018-06-29T08:41:43.012Z,11.63
2018-06-29T08:44:12.769Z,11.17
2018-06-29T08:46:42.776Z,14.07
2018-06-29T08:49:12.783Z,11.70
2018-06-29T08:51:42.487Z,12.37
2018-06-29T08:54:12.158Z,11.87
2018-06-29T08:56:41.899Z,12.93
2018-06-29T08:59:11.596Z,12.87
2018-06-29T09:01:41.341Z,13.53
2018-06-29T09:04:11.060Z,13.67
2018-06-29T09:06:40.773Z,12.90
2018-06-29T09:09:10.635Z,13.80
2018-06-29T09:11:40.513Z,13.17
2018-06-29T09:14:10.213Z,14.30
2018-06-29T09:16:39.881Z,12.90
2018-06-29T09:19:09.649Z,11.50
2018-06-29T09:21:39.383Z,11.57
2018-06-29T09:24:09.092Z,12.17
2018-06-29T09:26:39.216Z,11.03
2018-06-29T09:29:08.885Z,10.57
2018-06-29T09:31:38.683Z,12.03
2018-06-29T09:34:08.478Z,11.63
2018-06-29T09:36:38.171Z,10.60
2018-06-29T09:39:10.172Z,11.53
2018-06-29T09:41:39.910Z,12.37
2018-06-29T09:44:09.616Z,13.20
2018-06-29T09:46:39.417Z,14.63
2018-06-29T09:49:09.076Z,10.50
2018-06-29T09:51:38.794Z,11.10
2018-06-29T09:54:08.615Z,11.50
2018-06-29T09:56:38.376Z,12.77
2018-06-29T09:59:08.532Z,10.50
2018-06-29T10:01:38.260Z,9.53
2018-06-29T10:04:08.024Z,9.47
2018-06-29T10:06:37.729Z,10.27
2018-06-29T10:09:09.268Z,10.50
2018-06-29T10:11:39.034Z,13.00
2018-06-29T10:14:08.808Z,10.40
2018-06-29T10:16:38.459Z,10.10
2018-06-29T10:19:09.232Z,11.40
2018-06-29T10:21:38.912Z,11.77
2018-06-29T10:24:08.712Z,11.17
2018-06-29T10:26:38.453Z,12.20
2018-06-29T10:29:08.598Z,13.07
2018-06-29T10:31:38.520Z,12.10
2018-06-29T10:34:08.296Z,11.63
2018-06-29T10:36:38.014Z,7.70
2018-06-29T10:39:11.054Z,6.30
2018-06-29T10:41:41.158Z,6.07
2018-06-29T10:44:11.039Z,5.87
2018-06-29T10:46:41.783Z,7.47
2018-06-29T10:49:11.481Z,7.60
2018-06-29T10:51:41.160Z,8.07
2018-06-29T10:54:10.860Z,6.80
2018-06-29T10:56:40.549Z,7.73
2018-06-29T10:59:10.196Z,7.20
2018-06-29T11:01:39.903Z,6.60
2018-06-29T11:04:09.589Z,6.33
2018-06-29T11:06:39.334Z,5.03
2018-06-29T11:09:10.346Z,5.00
2018-06-29T11:11:40.061Z,10.37
2018-06-29T11:14:09.848Z,4.10
2018-06-29T11:16:39.549Z,4.43
2018-06-29T11:19:09.233Z,4.20
2018-06-29T11:21:38.926Z,4.10
2018-06-29T11:24:08.627Z,3.97
2018-06-29T11:26:38.281Z,4.00
2018-06-29T11:29:08.089Z,4.43
2018-06-29T11:31:37.764Z,4.70
2018-06-29T11:34:07.572Z,6.10
2018-06-29T11:36:37.313Z,4.97
2018-06-29T11:39:11.047Z,5.80
2018-06-29T11:41:41.003Z,8.40
2018-06-29T11:44:11.174Z,7.47
2018-06-29T11:46:40.856Z,6.07
2018-06-29T11:49:10.600Z,12.20
2018-06-29T11:51:40.621Z,6.50
2018-06-29T11:54:10.338Z,7.07
2018-06-29T11:56:40.116Z,7.00
2018-06-29T11:59:09.814Z,7.67
2018-06-29T12:01:39.605Z,7.37
2018-06-29T12:04:09.297Z,8.30
2018-06-29T12:06:38.984Z,7.43
2018-06-29T12:09:10.697Z,5.17
2018-06-29T12:11:40.720Z,6.23
2018-06-29T12:14:10.501Z,6.10
2018-06-29T12:16:40.290Z,5.93
2018-06-29T12:19:09.961Z,6.00
2018-06-29T12:21:39.957Z,6.13
2018-06-29T12:24:09.688Z,6.30
2018-06-29T12:26:39.449Z,7.83
2018-06-29T12:29:09.221Z,6.97
2018-06-29T12:31:38.936Z,7.40
2018-06-29T12:34:08.661Z,7.47
2018-06-29T12:36:38.357Z,7.33
2018-06-29T12:39:08.965Z,6.47
2018-06-29T12:41:39.381Z,7.33
2018-06-29T12:44:09.716Z,6.20
2018-06-29T12:46:39.662Z,6.10
2018-06-29T12:49:09.399Z,5.73
2018-06-29T12:51:39.276Z,5.37
2018-06-29T12:54:09.093Z,5.73
2018-06-29T12:56:38.767Z,5.43
2018-06-29T12:59:08.488Z,4.97
2018-06-29T13:01:48.652Z,4.93
2018-06-29T13:04:24.295Z,4.40
2018-06-29T13:06:54.072Z,3.77
2018-06-29T13:09:23.747Z,4.23
2018-06-29T13:11:53.466Z,4.20
2018-06-29T13:14:23.271Z,4.70
2018-06-29T13:16:53.028Z,4.67
2018-06-29T13:19:22.735Z,3.40
2018-06-29T13:21:52.594Z,3.40
2018-06-29T13:24:22.334Z,3.17
2018-06-29T13:26:52.052Z,3.60
2018-06-29T13:29:21.792Z,4.13
2018-06-29T13:31:51.583Z,3.63
2018-06-29T13:34:21.288Z,4.47
2018-06-29T13:36:50.980Z,3.57
2018-06-29T13:39:20.763Z,5.30
2018-06-29T13:41:50.945Z,4.60
2018-06-29T13:44:20.841Z,4.03
2018-06-29T13:46:50.500Z,5.57
2018-06-29T13:49:20.576Z,7.27
2018-06-29T13:51:50.277Z,6.30
2018-06-29T13:54:20.640Z,4.93
2018-06-29T13:56:50.360Z,4.70
2018-06-29T13:59:20.453Z,4.40
2018-06-29T14:01:50.153Z,9.27
2018-06-29T14:04:19.870Z,4.10
2018-06-29T14:06:49.587Z,7.47
2018-06-29T14:09:19.308Z,3.30
2018-06-29T14:11:49.398Z,3.87
2018-06-29T14:14:19.092Z,3.07
2018-06-29T14:16:49.187Z,2.80
2018-06-29T14:19:18.875Z,3.13
2018-06-29T14:21:48.628Z,3.00
2018-06-29T14:24:18.325Z,3.20
2018-06-29T14:26:48.025Z,2.83
2018-06-29T14:29:17.778Z,2.53
2018-06-29T14:31:47.830Z,2.80
2018-06-29T14:34:17.607Z,3.20
2018-06-29T14:36:47.368Z,3.17
2018-06-29T14:39:17.087Z,4.53
2018-06-29T14:41:46.885Z,3.50
2018-06-29T14:44:16.657Z,3.10
2018-06-29T14:46:46.388Z,3.17
2018-06-29T14:49:16.234Z,3.00
2018-06-29T14:51:45.943Z,3.00
2018-06-29T14:54:15.680Z,4.00
2018-06-29T14:56:45.622Z,3.03
2018-06-29T14:59:15.333Z,3.20
2018-06-29T15:01:45.336Z,2.87
2018-06-29T15:04:15.077Z,3.50
2018-06-29T15:06:44.800Z,3.47
2018-06-29T15:09:14.671Z,3.40
2018-06-29T15:11:44.356Z,3.30
2018-06-29T15:14:14.060Z,3.30
2018-06-29T15:16:43.887Z,2.30
2018-06-29T15:19:13.616Z,2.67
2018-06-29T15:21:43.411Z,2.20
2018-06-29T15:24:13.109Z,2.30
2018-06-29T15:26:42.907Z,2.20
2018-06-29T15:29:12.601Z,2.00
2018-06-29T15:31:42.303Z,1.70
2018-06-29T15:34:12.166Z,1.60
2018-06-29T15:36:41.841Z,1.60
2018-06-29T15:39:13.208Z,1.87
2018-06-29T15:41:42.946Z,1.70
2018-06-29T15:44:12.805Z,2.00
2018-06-29T15:46:42.547Z,2.13
2018-06-29T15:49:12.344Z,2.50
2018-06-29T15:51:42.081Z,2.27
2018-06-29T15:54:11.848Z,2.00
2018-06-29T15:56:41.624Z,2.50
2018-06-29T15:59:11.737Z,2.60
2018-06-29T16:01:41.444Z,2.50
2018-06-29T16:04:11.129Z,2.53
2018-06-29T16:06:40.826Z,3.10
2018-06-29T16:09:11.407Z,3.27
2018-06-29T16:11:41.205Z,2.80
2018-06-29T16:14:10.884Z,2.63
2018-06-29T16:16:40.609Z,3.10
2018-06-29T16:19:10.320Z,2.90
2018-06-29T16:21:40.125Z,3.00
2018-06-29T16:24:09.934Z,4.07
2018-06-29T16:26:39.637Z,3.00
2018-06-29T16:29:09.470Z,3.30
2018-06-29T16:31:39.160Z,3.67
2018-06-29T16:34:09.188Z,3.13
2018-06-29T16:36:38.959Z,2.60
2018-06-29T16:39:10.794Z,2.70
2018-06-29T16:41:40.657Z,2.90
2018-06-29T16:44:11.297Z,3.40
2018-06-29T16:46:41.104Z,3.57
2018-06-29T16:49:10.880Z,3.47
2018-06-29T16:51:40.604Z,3.00
2018-06-29T16:54:10.420Z,2.87
2018-06-29T16:56:40.104Z,2.63
2018-06-29T16:59:09.921Z,3.17
2018-06-29T17:01:39.627Z,3.17
2018-06-29T17:04:09.415Z,2.80
2018-06-29T17:06:39.214Z,3.57
2018-06-29T17:09:09.610Z,3.70
2018-06-29T17:11:39.488Z,3.37
2018-06-29T17:14:09.265Z,3.50
2018-06-29T17:16:38.981Z,3.57
2018-06-29T17:19:08.748Z,3.70
2018-06-29T17:21:38.589Z,3.73
2018-06-29T17:24:08.341Z,4.10
2018-06-29T17:26:38.358Z,4.93
2018-06-29T17:29:08.186Z,4.33
2018-06-29T17:31:37.843Z,4.60
2018-06-29T17:34:07.997Z,4.80
2018-06-29T17:36:37.656Z,5.07
2018-06-29T17:39:09.360Z,4.20
2018-06-29T17:41:39.237Z,4.00
2018-06-29T17:44:09.044Z,4.00
2018-06-29T17:46:38.937Z,4.00
2018-06-29T17:49:08.646Z,3.43
2018-06-29T17:51:38.404Z,14.23
2018-06-29T17:54:08.196Z,14.43
2018-06-29T17:56:37.957Z,8.47
2018-06-29T17:59:07.659Z,9.43
2018-06-29T18:01:37.461Z,3.90
2018-06-29T18:04:07.232Z,4.20
2018-06-29T18:06:37.027Z,3.73
2018-06-29T18:09:08.857Z,3.50
2018-06-29T18:11:38.697Z,3.00
2018-06-29T18:14:08.729Z,2.87
2018-06-29T18:16:38.548Z,3.50
2018-06-29T18:19:08.329Z,3.23
2018-06-29T18:21:38.214Z,3.60
2018-06-29T18:24:07.952Z,3.53
2018-06-29T18:26:37.677Z,3.60
2018-06-29T18:29:07.408Z,3.70
2018-06-29T18:31:37.429Z,4.63
2018-06-29T18:34:07.183Z,4.40
2018-06-29T18:36:36.889Z,5.50
2018-06-29T18:39:08.873Z,6.20
2018-06-29T18:41:38.657Z,6.20
2018-06-29T18:44:08.502Z,7.93
2018-06-29T18:46:38.322Z,9.30
2018-06-29T18:49:08.247Z,10.30
2018-06-29T18:51:38.528Z,10.40
2018-06-29T18:54:08.703Z,10.27
2018-06-29T18:56:38.821Z,10.87
2018-06-29T18:59:08.540Z,9.67
2018-06-29T19:01:38.547Z,8.70
2018-06-29T19:04:08.482Z,9.53
2018-06-29T19:06:38.267Z,9.60
2018-06-29T19:09:09.497Z,10.10
2018-06-29T19:11:39.868Z,10.00
2018-06-29T19:14:10.135Z,9.97
2018-06-29T19:16:39.820Z,9.20
2018-06-29T19:19:15.693Z,10.10
2018-06-29T19:21:45.479Z,10.10
2018-06-29T19:24:15.475Z,9.63
2018-06-29T19:26:45.200Z,10.30
2018-06-29T19:29:14.919Z,10.30
2018-06-29T19:31:44.766Z,10.13
2018-06-29T19:34:14.482Z,10.63
2018-06-29T19:36:44.314Z,10.73
2018-06-29T19:39:14.043Z,10.77
2018-06-29T19:41:43.837Z,10.57
2018-06-29T19:44:13.684Z,10.57
2018-06-29T19:46:43.389Z,10.63
2018-06-29T19:49:13.497Z,10.60
2018-06-29T19:51:43.231Z,9.57
2018-06-29T19:54:12.955Z,10.23
2018-06-29T19:56:42.648Z,10.47
2018-06-29T19:59:12.302Z,11.67
2018-06-29T20:01:43.305Z,12.00
2018-06-29T20:04:13.047Z,13.10
2018-06-29T20:06:42.772Z,14.27
2018-06-29T20:09:14.095Z,13.47
2018-06-29T20:11:43.820Z,14.73
2018-06-29T20:14:15.645Z,13.60
2018-06-29T20:16:45.631Z,13.33
2018-06-29T20:19:15.643Z,12.77
2018-06-29T20:21:45.423Z,12.57
2018-06-29T20:24:15.232Z,12.60
2018-06-29T20:26:44.980Z,12.43
2018-06-29T20:29:14.715Z,13.47
2018-06-29T20:31:44.478Z,12.67
2018-06-29T20:34:14.742Z,12.30
2018-06-29T20:36:44.478Z,14.37
2018-06-29T20:39:14.237Z,12.07
2018-06-29T20:41:43.897Z,11.13
2018-06-29T20:44:13.636Z,9.50
2018-06-29T20:46:43.333Z,8.43
2018-06-29T20:49:13.365Z,8.10
2018-06-29T20:51:43.166Z,7.73
2018-06-29T20:54:13.205Z,7.37
2018-06-29T20:56:43.544Z,6.97
2018-06-29T20:59:13.781Z,6.93
2018-06-29T21:01:44.060Z,7.13
2018-06-29T21:04:14.357Z,6.93
2018-06-29T21:06:44.178Z,6.03
2018-06-29T21:09:13.989Z,6.53
2018-06-29T21:11:43.873Z,6.00
2018-06-29T21:14:14.008Z,6.10
2018-06-29T21:16:44.635Z,6.70
2018-06-29T21:19:14.753Z,6.47
2018-06-29T21:21:44.473Z,5.70
2018-06-29T21:24:14.215Z,5.97
2018-06-29T21:26:43.965Z,5.90
2018-06-29T21:29:13.737Z,5.40
2018-06-29T21:31:43.430Z,5.07
2018-06-29T21:34:13.127Z,5.10
2018-06-29T21:36:42.849Z,4.60
2018-06-29T21:39:12.821Z,5.03
2018-06-29T21:41:42.869Z,5.27
2018-06-29T21:44:12.642Z,5.30
2018-06-29T21:46:42.402Z,5.13
2018-06-29T21:49:12.126Z,5.10
2018-06-29T21:51:41.895Z,5.93
2018-06-29T21:54:11.904Z,7.40
2018-06-29T21:56:41.631Z,6.10
2018-06-29T21:59:11.457Z,6.53
2018-06-29T22:01:41.231Z,5.87
2018-06-29T22:04:21.701Z,6.50
2018-06-29T22:06:51.481Z,6.37
2018-06-29T22:09:21.549Z,5.80
2018-06-29T22:11:51.248Z,5.50
2018-06-29T22:14:21.316Z,5.67
2018-06-29T22:16:51.123Z,6.03
2018-06-29T22:19:20.905Z,5.47
2018-06-29T22:21:50.952Z,5.97
2018-06-29T22:24:20.651Z,5.53
2018-06-29T22:26:50.396Z,5.53
2018-06-29T22:29:20.461Z,5.90
2018-06-29T22:31:50.258Z,6.00
2018-06-29T22:34:19.984Z,5.20
2018-06-29T22:36:49.692Z,5.87
2018-06-29T22:39:19.460Z,6.10
2018-06-29T22:41:49.144Z,6.90
2018-06-29T22:44:18.853Z,6.73
2018-06-29T22:46:48.572Z,6.87
2018-06-29T22:49:18.380Z,6.50
2018-06-29T22:51:48.091Z,6.97
2018-06-29T22:54:17.917Z,6.67
2018-06-29T22:56:47.654Z,7.00
2018-06-29T22:59:17.739Z,6.97
2018-06-29T23:01:47.699Z,6.67
2018-06-29T23:04:18.049Z,6.13
2018-06-29T23:06:48.741Z,6.80
2018-06-29T23:09:18.605Z,7.30
2018-06-29T23:11:48.829Z,8.00
2018-06-29T23:14:18.744Z,6.90
2018-06-29T23:16:48.792Z,6.80
2018-06-29T23:19:18.692Z,6.90
2018-06-29T23:21:48.768Z,7.40
2018-06-29T23:24:19.039Z,7.07
2018-06-29T23:26:48.992Z,6.90
2018-06-29T23:29:18.930Z,7.67
2018-06-29T23:31:49.159Z,7.03
2018-06-29T23:34:19.321Z,7.07
2018-06-29T23:36:49.661Z,7.53
2018-06-29T23:39:19.697Z,7.80
2018-06-29T23:41:49.952Z,7.97
2018-06-29T23:44:19.947Z,7.40
2018-06-29T23:46:50.244Z,7.30
2018-06-29T23:49:20.230Z,7.10
2018-06-29T23:51:50.081Z,7.30
2018-06-29T23:54:19.994Z,6.87
2018-06-29T23:56:49.939Z,7.07
2018-06-29T23:59:19.947Z,7.07
